Time;durP1;ratioP1;P1;durP2;ratioP2;P2;SDS_P1;SDS_P2;PMS_P1;PMS_P2;Temp;Humidity;BMP_temperature;BMP_pressure;BME280_temperature;BME280_humidity;BME280_pressure;Samples;Min_cycle;Max_cycle;Signal;HPM_P1;HPM_P2
2022/10/02 03:01:02;;;;;;;1.00;0.82;;;18.70;47.70;;;;;;5601927;23;45980;-59
2022/10/02 03:03:28;;;;;;;1.23;0.70;;;18.70;47.70;;;;;;4897460;28;45924;-59
2022/10/02 03:06:10;;;;;;;0.57;0.52;;;18.70;47.70;;;;;;4915954;28;45093;-57
2022/10/02 03:08:36;;;;;;;0.55;0.52;;;18.70;47.70;;;;;;4892777;28;45389;-57
2022/10/02 03:11:08;;;;;;;1.08;0.80;;;18.70;47.60;;;;;;4917695;28;45600;-57
2022/10/02 03:13:39;;;;;;;1.43;0.93;;;18.70;47.70;;;;;;4916504;28;45156;-57
2022/10/02 03:16:36;;;;;;;1.42;0.75;;;18.70;47.70;;;;;;4901363;28;45454;-58
2022/10/02 03:19:53;;;;;;;0.82;0.73;;;18.70;47.70;;;;;;4900484;28;45325;-58
2022/10/02 03:22:34;;;;;;;0.63;0.63;;;18.70;47.70;;;;;;4864755;28;45845;-59
2022/10/02 03:25:12;;;;;;;0.60;0.52;;;18.70;47.70;;;;;;4914874;28;45048;-57
2022/10/02 03:27:50;;;;;;;0.73;0.60;;;18.70;47.70;;;;;;4889273;28;45518;-56
2022/10/02 03:30:23;;;;;;;0.88;0.80;;;18.70;47.70;;;;;;4896562;28;45085;-58
2022/10/02 03:32:52;;;;;;;0.70;0.70;;;18.70;47.70;;;;;;4892899;28;45118;-58
2022/10/02 03:35:18;;;;;;;0.70;0.60;;;18.70;47.70;;;;;;4882385;28;45594;-59
2022/10/02 03:37:49;;;;;;;0.90;0.63;;;18.70;47.60;;;;;;4885599;28;45629;-58
2022/10/02 03:40:14;;;;;;;1.05;0.50;;;18.70;47.60;;;;;;4872250;28;44956;-57
2022/10/02 03:42:40;;;;;;;0.95;0.50;;;18.70;47.70;;;;;;4914517;28;45283;-58
2022/10/02 03:45:06;;;;;;;0.98;0.57;;;18.70;47.70;;;;;;4887430;28;46141;-59
2022/10/02 03:47:31;;;;;;;0.63;0.47;;;18.70;47.70;;;;;;4913206;28;45189;-59
2022/10/02 03:49:57;;;;;;;1.10;0.70;;;18.70;47.70;;;;;;4913095;28;45171;-58
2022/10/02 03:52:23;;;;;;;1.33;0.85;;;18.70;47.70;;;;;;4895895;28;45608;-58
2022/10/02 03:54:52;;;;;;;0.70;0.60;;;18.70;47.70;;;;;;4887004;28;46176;-59
2022/10/02 03:57:20;;;;;;;0.73;0.70;;;18.70;47.70;;;;;;4907862;28;44734;-57
2022/10/02 04:00:03;;;;;;;0.68;0.50;;;18.70;47.70;;;;;;4878964;28;45712;-59
2022/10/02 04:02:33;;;;;;;;;;;18.70;47.70;;;;;;4910179;28;45868;-58
2022/10/02 04:05:36;;;;;;;0.93;0.55;;;18.60;47.70;;;;;;4894307;28;45974;-58
2022/10/02 04:08:14;;;;;;;1.10;0.65;;;18.70;47.70;;;;;;4913249;28;45641;-58
2022/10/02 04:10:49;;;;;;;0.90;0.60;;;18.60;47.60;;;;;;4893176;28;45323;-59
2022/10/02 04:13:33;;;;;;;0.70;0.60;;;18.60;47.60;;;;;;4879908;28;45399;-56
2022/10/02 04:16:05;;;;;;;1.05;0.70;;;18.60;47.70;;;;;;4895750;28;46470;-57
2022/10/02 04:18:56;;;;;;;0.70;0.67;;;18.60;47.70;;;;;;4896040;28;46261;-57
2022/10/02 04:21:36;;;;;;;1.42;0.80;;;18.60;47.70;;;;;;4891688;28;45647;-58
2022/10/02 04:24:38;;;;;;;0.88;0.80;;;18.60;47.70;;;;;;4897565;28;45742;-60
2022/10/02 04:27:31;;;;;;;0.82;0.60;;;18.60;47.70;;;;;;4881718;28;45389;-59
2022/10/02 04:30:03;;;;;;;0.55;0.43;;;18.60;47.80;;;;;;4912897;28;44947;-60
2022/10/02 04:32:30;;;;;;;0.70;0.70;;;18.60;47.70;;;;;;4882445;28;45395;-58
2022/10/02 04:34:56;;;;;;;0.88;0.65;;;18.60;47.70;;;;;;4899345;28;45363;-59
2022/10/02 04:37:41;;;;;;;1.02;0.52;;;18.60;47.70;;;;;;4881697;28;46983;-58
2022/10/02 04:40:37;;;;;;;0.90;0.80;;;18.60;47.70;;;;;;4908287;28;45441;-59
2022/10/02 04:43:40;;;;;;;1.70;0.77;;;18.60;47.70;;;;;;4913559;28;45227;-57
2022/10/02 04:46:44;;;;;;;0.70;0.60;;;18.60;47.70;;;;;;4914454;28;44946;-57
2022/10/02 04:49:34;;;;;;;0.60;0.50;;;18.60;47.70;;;;;;4915101;28;47142;-55
2022/10/02 04:52:15;;;;;;;0.95;0.63;;;18.60;47.80;;;;;;4911154;28;45306;-59
2022/10/02 04:55:06;;;;;;;0.73;0.57;;;18.50;47.70;;;;;;4899046;28;45677;-57
2022/10/02 04:57:46;;;;;;;0.57;0.50;;;18.60;47.70;;;;;;4914305;28;45477;-59
2022/10/02 05:00:18;;;;;;;0.55;0.55;;;18.60;47.70;;;;;;4864615;28;45217;-57
2022/10/02 05:02:59;;;;;;;0.82;0.50;;;18.60;47.70;;;;;;4882665;28;45647;-58
2022/10/02 05:05:40;;;;;;;0.40;0.40;;;18.50;47.70;;;;;;4913813;28;45271;-57
2022/10/02 05:08:12;;;;;;;0.63;0.60;;;18.60;47.70;;;;;;4914351;28;45316;-58
2022/10/02 05:11:11;;;;;;;0.70;0.60;;;18.50;47.60;;;;;;4897714;28;46292;-59
2022/10/02 05:13:51;;;;;;;1.13;0.65;;;18.60;47.80;;;;;;4831552;28;45307;-59
2022/10/02 05:16:19;;;;;;;0.70;0.60;;;18.60;47.70;;;;;;4911100;28;44931;-58
2022/10/02 05:18:54;;;;;;;1.35;0.80;;;18.50;47.60;;;;;;4913794;28;45403;-57
2022/10/02 05:21:43;;;;;;;1.13;0.85;;;18.50;47.60;;;;;;4898510;28;45918;-57
2022/10/02 05:24:18;;;;;;;1.27;0.77;;;18.50;47.70;;;;;;4915564;28;45325;-59
2022/10/02 05:27:13;;;;;;;0.98;0.60;;;18.60;47.70;;;;;;4899524;28;44727;-59
2022/10/02 05:30:01;;;;;;;2.03;0.73;;;18.50;47.60;;;;;;4887755;28;45233;-58
2022/10/02 05:32:37;;;;;;;0.63;0.50;;;18.50;47.70;;;;;;4897216;28;45246;-59
2022/10/02 05:35:18;;;;;;;0.90;0.73;;;18.50;47.70;;;;;;4898437;28;45550;-59
2022/10/02 05:38:00;;;;;;;1.95;0.80;;;18.50;47.70;;;;;;4883973;28;46122;-58
2022/10/02 05:40:30;;;;;;;1.05;0.63;;;18.50;47.70;;;;;;4896922;28;45232;-59
2022/10/02 05:43:31;;;;;;;1.00;0.50;;;18.50;47.70;;;;;;4881569;28;45904;-58
2022/10/02 05:46:04;;;;;;;1.27;0.60;;;18.50;47.70;;;;;;4861371;28;44835;-58
2022/10/02 05:48:39;;;;;;;0.50;0.50;;;18.50;47.70;;;;;;4865558;28;45346;-59
2022/10/02 05:51:08;;;;;;;0.85;0.60;;;18.50;47.70;;;;;;4883618;28;45032;-58
2022/10/02 05:53:38;;;;;;;0.70;0.52;;;18.50;47.60;;;;;;4887299;28;45398;-59
2022/10/02 05:56:33;;;;;;;0.50;0.50;;;18.50;47.60;;;;;;4884108;28;45325;-59
2022/10/02 05:59:36;;;;;;;1.10;0.80;;;18.50;47.60;;;;;;4909036;28;45701;-58
2022/10/02 06:02:05;;;;;;;0.82;0.60;;;18.50;47.60;;;;;;4906395;28;44842;-59
2022/10/02 06:04:36;;;;;;;0.93;0.50;;;18.50;47.60;;;;;;4895685;28;45447;-56
2022/10/02 06:07:06;;;;;;;0.93;0.70;;;18.50;47.60;;;;;;4898403;28;44723;-58
2022/10/02 06:09:39;;;;;;;0.80;0.60;;;18.50;47.60;;;;;;4893920;28;45553;-60
2022/10/02 06:12:11;;;;;;;1.13;0.70;;;18.50;47.60;;;;;;4885141;28;45014;-58
2022/10/02 06:14:47;;;;;;;0.93;0.50;;;18.50;47.60;;;;;;4886274;28;45056;-56
2022/10/02 06:17:16;;;;;;;0.35;0.30;;;18.50;47.60;;;;;;4910343;28;45560;-58
2022/10/02 06:19:51;;;;;;;0.50;0.50;;;18.50;47.60;;;;;;4911726;28;46199;-59
2022/10/02 06:22:31;;;;;;;0.63;0.55;;;18.50;47.60;;;;;;4881573;28;45507;-58
2022/10/02 06:25:10;;;;;;;0.63;0.63;;;18.50;47.60;;;;;;4882650;28;45355;-57
2022/10/02 06:28:06;;;;;;;0.60;0.50;;;18.50;47.60;;;;;;4884644;28;45233;-57
2022/10/02 06:30:33;;;;;;;0.65;0.50;;;18.50;47.60;;;;;;4891494;28;45386;-58
2022/10/02 06:33:01;;;;;;;0.90;0.68;;;18.50;47.60;;;;;;4897588;28;45689;-58
2022/10/02 06:35:52;;;;;;;0.80;0.57;;;18.50;47.60;;;;;;4915207;28;45549;-59
2022/10/02 06:38:34;;;;;;;0.50;0.50;;;18.50;47.60;;;;;;4894150;28;46191;-59
2022/10/02 06:41:46;;;;;;;0.40;0.40;;;18.50;47.60;;;;;;4911807;28;45825;-58
2022/10/02 06:44:20;;;;;;;0.80;0.60;;;18.50;47.60;;;;;;4893872;28;45522;-59
2022/10/02 06:47:17;;;;;;;0.77;0.70;;;18.40;47.60;;;;;;4913443;28;46233;-59
2022/10/02 06:50:04;;;;;;;0.80;0.50;;;18.50;47.70;;;;;;4914846;28;45595;-59
2022/10/02 06:52:59;;;;;;;0.75;0.50;;;18.40;47.70;;;;;;4915597;28;45367;-60
2022/10/02 06:55:32;;;;;;;0.90;0.50;;;18.50;47.70;;;;;;4881530;28;44706;-58
2022/10/02 06:58:07;;;;;;;1.00;0.70;;;18.40;47.70;;;;;;4900137;28;46262;-59
2022/10/02 07:00:35;;;;;;;0.70;0.60;;;18.40;47.70;;;;;;4909641;28;45261;-56
2022/10/02 07:03:21;;;;;;;1.80;0.50;;;18.40;47.70;;;;;;4897624;28;46284;-59
2022/10/02 07:06:08;;;;;;;0.50;0.50;;;18.40;47.60;;;;;;4898858;28;45358;-57
2022/10/02 07:08:51;;;;;;;0.50;0.50;;;18.50;47.70;;;;;;4897300;28;47479;-57
2022/10/02 07:11:34;;;;;;;1.15;0.60;;;18.50;47.70;;;;;;4889383;28;46424;-58
2022/10/02 07:14:02;;;;;;;1.50;0.80;;;18.40;47.60;;;;;;4873696;28;45550;-58
2022/10/02 07:16:54;;;;;;;1.02;0.70;;;18.40;47.60;;;;;;4894399;28;46160;-57
2022/10/02 07:19:48;;;;;;;0.43;0.43;;;18.40;47.70;;;;;;4883268;28;45347;-59
2022/10/02 07:22:26;;;;;;;0.70;0.55;;;18.40;47.70;;;;;;4881582;28;45291;-57
2022/10/02 07:25:13;;;;;;;1.38;0.65;;;18.40;48.30;;;;;;4912123;28;45531;-59
2022/10/02 07:27:56;;;;;;;0.30;0.30;;;18.50;47.70;;;;;;4897577;28;45745;-60
2022/10/02 07:30:22;;;;;;;;;;;18.40;47.60;;;;;;4909055;28;45978;-56
2022/10/02 07:32:58;;;;;;;0.40;0.40;;;18.40;47.70;;;;;;4909611;28;45177;-58
2022/10/02 07:35:40;;;;;;;0.70;0.60;;;18.40;47.60;;;;;;4893454;28;45433;-57
2022/10/02 07:38:41;;;;;;;0.80;0.50;;;18.50;47.70;;;;;;4918784;28;45399;-57
2022/10/02 07:41:41;;;;;;;0.52;0.50;;;18.40;47.60;;;;;;4918409;28;45502;-58
2022/10/02 07:44:16;;;;;;;1.40;0.57;;;18.40;47.70;;;;;;4924398;28;45357;-58
2022/10/02 07:46:51;;;;;;;0.60;0.60;;;18.50;47.70;;;;;;4904028;28;45558;-57
2022/10/02 07:49:38;;;;;;;0.68;0.47;;;18.40;47.70;;;;;;4907068;28;45265;-58
2022/10/02 07:52:19;;;;;;;1.20;0.60;;;18.40;47.60;;;;;;4923352;28;45052;-58
2022/10/02 07:55:13;;;;;;;1.17;0.68;;;18.40;47.70;;;;;;4924810;28;45177;-58
2022/10/02 07:57:48;;;;;;;1.15;0.60;;;18.40;47.70;;;;;;4904527;28;45423;-57
2022/10/02 08:00:14;;;;;;;0.35;0.35;;;18.40;47.70;;;;;;4913471;28;45864;-59
2022/10/02 08:03:03;;;;;;;1.13;0.60;;;18.40;47.70;;;;;;4900287;28;46541;-57
2022/10/02 08:05:41;;;;;;;0.57;0.47;;;18.40;47.70;;;;;;4892887;28;45435;-57
2022/10/02 08:08:27;;;;;;;2.67;0.70;;;18.40;47.80;;;;;;4906623;28;45238;-60
2022/10/02 08:11:22;;;;;;;1.30;0.52;;;18.40;47.70;;;;;;4909102;28;45243;-60
2022/10/02 08:13:54;;;;;;;1.58;0.60;;;18.50;47.80;;;;;;4897755;28;46106;-60
2022/10/02 08:16:21;;;;;;;0.98;0.50;;;18.40;47.70;;;;;;4915778;28;45984;-57
2022/10/02 08:18:51;;;;;;;1.58;0.70;;;18.40;47.80;;;;;;4888898;28;45005;-58
2022/10/02 08:21:19;;;;;;;1.17;0.60;;;18.40;47.70;;;;;;4879018;28;44796;-60
2022/10/02 08:23:53;;;;;;;0.50;0.50;;;18.40;47.70;;;;;;4886283;28;47345;-58
2022/10/02 08:26:27;;;;;;;0.75;0.68;;;18.40;47.80;;;;;;4900863;28;44682;-59
2022/10/02 08:29:23;;;;;;;0.95;0.50;;;18.40;47.80;;;;;;4917507;28;45196;-58
2022/10/02 08:31:52;;;;;;;1.05;0.52;;;18.40;47.80;;;;;;4901653;28;46393;-61
2022/10/02 08:34:19;;;;;;;0.77;0.50;;;18.40;47.80;;;;;;4888472;28;45881;-59
2022/10/02 08:37:15;;;;;;;0.50;0.45;;;18.40;47.80;;;;;;4906170;28;45659;-59
2022/10/02 08:39:44;;;;;;;0.65;0.55;;;18.40;47.80;;;;;;4915544;28;45228;-59
2022/10/02 08:42:22;;;;;;;0.93;0.60;;;18.40;47.80;;;;;;4912928;28;45542;-59
2022/10/02 08:45:16;;;;;;;0.65;0.50;;;18.40;47.80;;;;;;4901073;28;45581;-57
2022/10/02 08:47:42;;;;;;;0.50;0.50;;;18.40;47.80;;;;;;4902541;28;44813;-58
2022/10/02 08:50:13;;;;;;;0.75;0.40;;;18.40;48.40;;;;;;4921485;28;44756;-58
2022/10/02 08:52:57;;;;;;;0.70;0.52;;;18.40;47.80;;;;;;4910038;28;45278;-59
2022/10/02 08:55:46;;;;;;;0.93;0.57;;;18.40;47.80;;;;;;4925175;28;45445;-59
2022/10/02 08:58:57;;;;;;;0.38;0.38;;;18.40;47.80;;;;;;4907909;28;45336;-59
2022/10/02 09:01:37;;;;;;;1.15;0.60;;;18.40;47.90;;;;;;4889513;28;45564;-57
2022/10/02 09:04:27;;;;;;;0.50;0.45;;;18.40;47.80;;;;;;4906473;28;45610;-57
2022/10/02 09:07:07;;;;;;;0.30;0.30;;;18.40;47.80;;;;;;4902103;28;45350;-59
2022/10/02 09:09:57;;;;;;;0.70;0.50;;;18.40;47.80;;;;;;4885041;28;45365;-59
2022/10/02 09:13:05;;;;;;;0.63;0.50;;;18.40;47.80;;;;;;4905367;28;45263;-59
2022/10/02 09:15:41;;;;;;;0.60;0.40;;;18.40;47.80;;;;;;4876285;28;45058;-58
2022/10/02 09:18:31;;;;;;;1.35;0.60;;;18.40;47.80;;;;;;4922896;28;45847;-60
2022/10/02 09:21:13;;;;;;;0.65;0.40;;;18.40;47.80;;;;;;4924245;28;45134;-60
2022/10/02 09:24:00;;;;;;;0.77;0.50;;;18.40;47.80;;;;;;4923729;28;44767;-59
2022/10/02 09:26:45;;;;;;;0.45;0.43;;;18.40;47.80;;;;;;4924350;28;45364;-59
2022/10/02 09:29:41;;;;;;;0.98;0.45;;;18.40;47.80;;;;;;4920565;28;47196;-60
2022/10/02 09:32:42;;;;;;;0.75;0.50;;;18.40;47.80;;;;;;4869555;28;45958;-59
2022/10/02 09:35:35;;;;;;;0.57;0.40;;;18.40;47.80;;;;;;4899585;28;45545;-59
2022/10/02 09:38:20;;;;;;;0.90;0.60;;;18.40;47.80;;;;;;4909265;28;45358;-60
2022/10/02 09:40:58;;;;;;;0.57;0.52;;;18.40;47.80;;;;;;4900715;28;45054;-60
2022/10/02 09:43:36;;;;;;;0.85;0.60;;;18.40;47.80;;;;;;4917602;28;45654;-58
2022/10/02 09:46:30;;;;;;;0.60;0.50;;;18.40;47.80;;;;;;4914832;28;45318;-58
2022/10/02 09:49:07;;;;;;;;;;;18.40;47.80;;;;;;4917020;28;44960;-58
2022/10/02 09:51:53;;;;;;;1.08;0.70;;;18.40;47.90;;;;;;4883275;28;45600;-57
2022/10/02 09:54:49;;;;;;;0.93;0.60;;;18.40;47.90;;;;;;4895091;28;45269;-61
2022/10/02 09:57:34;;;;;;;0.73;0.50;;;18.40;47.80;;;;;;4911163;28;45256;-62
2022/10/02 10:00:57;;;;;;;0.50;0.50;;;18.40;47.70;;;;;;4911370;28;45332;-59
2022/10/02 10:03:29;;;;;;;0.70;0.55;;;18.40;47.80;;;;;;4851939;29;47066;-58
2022/10/02 10:06:20;;;;;;;1.60;0.70;;;18.40;47.80;;;;;;4849783;29;45000;-59
2022/10/02 10:09:18;;;;;;;0.75;0.50;;;18.40;47.80;;;;;;4884696;28;45803;-60
2022/10/02 10:11:56;;;;;;;0.50;0.50;;;18.40;47.80;;;;;;4895914;28;45878;-59
2022/10/02 10:14:39;;;;;;;1.08;0.50;;;18.40;47.80;;;;;;4911097;28;46853;-60
2022/10/02 10:17:07;;;;;;;0.65;0.57;;;18.40;47.90;;;;;;4915120;28;45308;-58
2022/10/02 10:19:45;;;;;;;0.70;0.57;;;18.40;47.80;;;;;;4911081;28;44817;-59
2022/10/02 10:22:32;;;;;;;0.75;0.63;;;18.40;47.80;;;;;;4877827;28;45598;-58
2022/10/02 10:25:17;;;;;;;0.57;0.47;;;18.40;47.80;;;;;;4914381;28;47215;-58
2022/10/02 10:28:20;;;;;;;0.98;0.60;;;18.40;47.80;;;;;;4908943;28;45609;-60
2022/10/02 10:31:36;;;;;;;0.82;0.60;;;18.40;47.80;;;;;;4907433;28;44845;-60
2022/10/02 10:34:36;;;;;;;1.08;0.45;;;18.40;47.80;;;;;;4851991;29;45530;-58
2022/10/02 10:40:35;;;;;;;0.40;0.40;;;18.40;47.80;;;;;;4896395;28;45041;-56
2022/10/02 10:43:40;;;;;;;0.88;0.50;;;18.40;47.80;;;;;;4895769;28;45259;-57
2022/10/02 10:46:09;;;;;;;0.73;0.45;;;18.40;47.80;;;;;;4913299;28;46459;-58
2022/10/02 10:48:47;;;;;;;0.60;0.40;;;18.40;47.80;;;;;;4909523;28;46836;-57
2022/10/02 10:51:34;;;;;;;0.98;0.50;;;18.40;47.80;;;;;;4881739;28;46254;-60
2022/10/02 10:54:02;;;;;;;0.57;0.40;;;18.40;47.80;;;;;;4897744;28;45828;-58
2022/10/02 10:56:42;;;;;;;0.85;0.60;;;18.40;47.80;;;;;;4911742;28;44846;-57
2022/10/02 10:59:29;;;;;;;0.60;0.45;;;18.40;47.80;;;;;;4910156;28;45438;-59
2022/10/02 11:02:28;;;;;;;1.02;0.57;;;18.40;47.80;;;;;;4910736;28;45662;-59
2022/10/02 11:05:21;;;;;;;0.75;0.50;;;18.40;47.80;;;;;;4845625;28;45385;-58
2022/10/02 11:08:16;;;;;;;0.82;0.60;;;18.40;47.80;;;;;;4911409;28;45783;-60
2022/10/02 11:11:19;;;;;;;0.60;0.50;;;18.40;47.80;;;;;;4879059;28;47506;-57
2022/10/02 11:13:54;;;;;;;0.47;0.47;;;18.40;47.90;;;;;;4899566;28;45240;-60
2022/10/02 11:16:51;;;;;;;0.57;0.57;;;18.40;47.80;;;;;;4912854;28;45413;-60
2022/10/02 11:19:19;;;;;;;0.70;0.47;;;18.40;48.00;;;;;;4909445;28;45064;-60
2022/10/02 11:22:26;;;;;;;1.05;0.70;;;18.40;47.80;;;;;;4883341;28;47139;-59
2022/10/02 11:24:52;;;;;;;0.95;0.60;;;18.40;47.80;;;;;;4913643;28;45777;-62
2022/10/02 11:27:20;;;;;;;0.65;0.57;;;18.40;47.90;;;;;;4915073;28;44703;-59
2022/10/02 11:30:10;;;;;;;1.15;0.63;;;18.40;47.80;;;;;;4912523;28;45650;-59
2022/10/02 11:33:02;;;;;;;0.70;0.60;;;18.40;47.80;;;;;;4909914;28;46302;-58
2022/10/02 11:35:53;;;;;;;0.68;0.50;;;18.40;47.70;;;;;;4893735;28;45050;-58
2022/10/02 11:38:37;;;;;;;0.63;0.40;;;18.40;47.80;;;;;;4898311;28;45033;-59
2022/10/02 11:41:32;;;;;;;0.70;0.50;;;18.40;47.80;;;;;;4906972;28;45397;-60
2022/10/02 11:44:30;;;;;;;0.82;0.40;;;18.40;47.80;;;;;;4900466;28;45573;-59
2022/10/02 11:47:06;;;;;;;0.70;0.45;;;18.40;47.80;;;;;;4857556;28;46148;-56
2022/10/02 11:49:38;;;;;;;0.82;0.50;;;18.40;47.80;;;;;;4892969;28;45381;-58
2022/10/02 11:52:30;;;;;;;1.05;0.60;;;18.40;47.80;;;;;;4898616;28;45701;-58
2022/10/02 11:55:19;;;;;;;0.80;0.40;;;18.40;47.80;;;;;;4911810;28;46110;-57
2022/10/02 11:58:06;;;;;;;0.77;0.47;;;18.40;47.80;;;;;;4895470;28;45280;-58
2022/10/02 12:00:35;;;;;;;0.82;0.60;;;18.40;47.80;;;;;;4891589;28;45373;-57
2022/10/02 12:03:07;;;;;;;0.47;0.30;;;18.40;47.80;;;;;;4913575;28;45392;-59
2022/10/02 12:05:54;;;;;;;0.40;0.40;;;18.40;47.80;;;;;;4909921;28;46039;-59
2022/10/02 12:08:47;;;;;;;0.88;0.68;;;18.40;47.80;;;;;;4896366;28;45161;-59
2022/10/02 12:11:32;;;;;;;0.50;0.50;;;18.40;47.80;;;;;;4888767;28;44986;-58
2022/10/02 12:14:19;;;;;;;0.90;0.55;;;18.40;47.80;;;;;;4896830;28;44832;-58
2022/10/02 12:16:59;;;;;;;0.50;0.50;;;18.40;47.80;;;;;;4911459;28;45033;-58
2022/10/02 12:26:57;;;;;;;0.75;0.63;;;18.40;47.80;;;;;;4912521;28;45328;-58
2022/10/02 12:29:05;;;;;;;0.45;0.40;;;18.40;47.80;;;;;;4908859;28;45108;-58
2022/10/02 12:32:06;;;;;;;0.90;0.45;;;18.40;47.80;;;;;;4896398;28;44766;-58
2022/10/02 12:34:49;;;;;;;0.70;0.40;;;18.40;47.90;;;;;;4913917;28;44978;-60
2022/10/02 12:37:22;;;;;;;0.60;0.60;;;18.40;47.90;;;;;;4898959;28;45271;-59
2022/10/02 12:40:18;;;;;;;0.68;0.50;;;18.40;48.60;;;;;;4881216;28;47035;-60
2022/10/02 12:43:05;;;;;;;0.80;0.57;;;18.40;48.00;;;;;;4914607;28;45941;-57
2022/10/02 12:45:34;;;;;;;0.43;0.43;;;18.40;47.90;;;;;;4899098;28;44682;-59
2022/10/02 12:48:17;;;;;;;0.63;0.40;;;18.40;47.90;;;;;;4898103;28;45313;-59
2022/10/02 12:50:51;;;;;;;0.98;0.82;;;18.40;47.90;;;;;;4899170;28;46034;-60
2022/10/02 12:53:51;;;;;;;1.95;0.80;;;18.40;47.90;;;;;;4898552;28;45226;-60
2022/10/02 12:56:40;;;;;;;0.63;0.63;;;18.40;47.90;;;;;;4913581;28;45615;-58
2022/10/02 12:59:31;;;;;;;0.88;0.50;;;18.40;47.90;;;;;;4916497;28;45223;-59
2022/10/02 13:02:30;;;;;;;0.40;0.40;;;18.40;47.90;;;;;;4884485;28;47020;-60
2022/10/02 13:05:39;;;;;;;0.50;0.45;;;18.40;47.90;;;;;;4888412;28;45316;-60
2022/10/02 13:08:29;;;;;;;0.60;0.50;;;18.40;48.00;;;;;;4898986;28;45541;-60
2022/10/02 13:11:03;;;;;;;0.73;0.50;;;18.40;48.00;;;;;;4916276;28;46069;-59
2022/10/02 13:14:04;;;;;;;0.50;0.50;;;18.40;47.90;;;;;;4886410;28;47104;-59
2022/10/02 13:17:04;;;;;;;0.93;0.50;;;18.40;48.60;;;;;;4862956;28;45553;-59
2022/10/02 13:19:39;;;;;;;0.73;0.50;;;18.40;48.00;;;;;;4900055;28;45614;-57
2022/10/02 13:22:13;;;;;;;0.80;0.68;;;18.40;48.00;;;;;;4867871;28;45077;-58
2022/10/02 13:24:55;;;;;;;0.30;0.30;;;18.40;48.00;;;;;;4913242;28;45888;-59
2022/10/02 13:27:23;;;;;;;1.33;0.70;;;18.40;48.00;;;;;;4882884;28;45527;-59
2022/10/02 13:30:15;;;;;;;0.63;0.60;;;18.40;48.00;;;;;;4914765;28;45304;-59
2022/10/02 13:32:59;;;;;;;1.10;0.70;;;18.40;48.00;;;;;;4915817;28;44772;-57
2022/10/02 13:35:28;;;;;;;0.30;0.30;;;18.40;48.00;;;;;;4913733;28;46257;-58
2022/10/02 13:38:09;;;;;;;0.85;0.43;;;18.40;48.00;;;;;;4895708;28;45655;-59
2022/10/02 13:40:42;;;;;;;0.60;0.43;;;18.40;48.00;;;;;;4912536;28;45013;-59
2022/10/02 13:43:10;;;;;;;0.68;0.60;;;18.40;48.10;;;;;;4898266;28;44763;-59
2022/10/02 13:46:01;;;;;;;0.43;0.40;;;18.40;48.00;;;;;;4915837;28;46312;-57
2022/10/02 13:48:35;;;;;;;0.50;0.47;;;18.40;48.10;;;;;;4896116;28;45585;-58
2022/10/02 13:51:30;;;;;;;0.55;0.40;;;18.40;48.00;;;;;;4916174;28;45854;-56
2022/10/02 13:54:09;;;;;;;0.63;0.50;;;18.40;48.10;;;;;;4883857;28;44775;-59
2022/10/02 13:56:53;;;;;;;0.75;0.43;;;18.40;48.10;;;;;;4893600;28;46373;-60
2022/10/02 13:59:49;;;;;;;0.40;0.40;;;18.40;48.00;;;;;;4909889;28;45577;-57
2022/10/02 14:02:50;;;;;;;0.32;0.32;;;18.40;48.10;;;;;;4895983;28;45320;-55
2022/10/02 14:05:33;;;;;;;0.65;0.60;;;18.40;48.10;;;;;;4894885;28;45185;-60
2022/10/02 14:08:09;;;;;;;0.90;0.63;;;18.40;48.10;;;;;;4912573;28;46129;-56
2022/10/02 14:10:52;;;;;;;0.70;0.55;;;18.40;48.00;;;;;;4880078;28;45595;-58
2022/10/02 14:13:39;;;;;;;0.50;0.50;;;18.40;48.10;;;;;;4896592;28;45523;-59
2022/10/02 14:16:18;;;;;;;1.42;0.60;;;18.40;48.10;;;;;;4912849;28;44772;-58
2022/10/02 14:18:44;;;;;;;0.57;0.45;;;18.40;48.10;;;;;;4892557;28;46220;-58
2022/10/02 14:21:31;;;;;;;0.70;0.50;;;18.40;48.10;;;;;;4910434;28;45665;-60
2022/10/02 14:24:58;;;;;;;0.73;0.60;;;18.40;48.10;;;;;;4899392;28;46233;-59
2022/10/02 14:27:18;;;;;;;1.23;0.55;;;18.40;48.70;;;;;;4908111;28;46072;-60
2022/10/02 14:30:01;;;;;;;0.60;0.60;;;18.40;48.10;;;;;;4897822;28;45280;-60
2022/10/02 14:32:30;;;;;;;0.70;0.65;;;18.40;48.10;;;;;;4881971;28;45019;-59
2022/10/02 14:35:03;;;;;;;0.60;0.43;;;18.40;48.10;;;;;;4912446;28;45894;-59
2022/10/02 14:38:00;;;;;;;0.75;0.57;;;18.40;48.10;;;;;;4892598;28;45463;-59
2022/10/02 14:40:49;;;;;;;0.57;0.52;;;18.40;48.10;;;;;;4894426;28;46285;-58
2022/10/02 14:43:19;;;;;;;1.15;0.50;;;18.40;48.10;;;;;;4897891;28;45297;-59
2022/10/02 14:45:55;;;;;;;0.82;0.47;;;18.40;48.10;;;;;;4911522;28;45217;-58
2022/10/02 14:48:24;;;;;;;0.57;0.43;;;18.40;48.10;;;;;;4893991;28;45227;-59
2022/10/02 14:51:05;;;;;;;0.43;0.43;;;18.40;48.10;;;;;;4896165;28;46223;-57
2022/10/02 14:53:34;;;;;;;0.40;0.32;;;18.40;48.10;;;;;;4914847;28;45280;-58
2022/10/02 14:56:03;;;;;;;0.88;0.40;;;18.40;48.10;;;;;;4912133;28;45510;-58
2022/10/02 14:58:45;;;;;;;0.90;0.50;;;18.40;48.10;;;;;;4894920;28;44903;-59
2022/10/02 15:01:23;;;;;;;0.52;0.50;;;18.40;48.10;;;;;;4880582;28;46193;-54
2022/10/02 15:04:03;;;;;;;0.40;0.32;;;18.40;48.10;;;;;;4878920;28;45496;-59
2022/10/02 15:06:58;;;;;;;0.60;0.60;;;18.40;48.10;;;;;;4910137;28;45762;-57
2022/10/02 15:09:29;;;;;;;0.40;0.40;;;18.40;48.10;;;;;;4881183;28;45805;-59
2022/10/02 15:12:13;;;;;;;0.68;0.50;;;18.40;48.70;;;;;;4894974;28;46212;-58
2022/10/02 15:14:46;;;;;;;0.82;0.63;;;18.40;48.10;;;;;;4891640;28;45384;-59
2022/10/02 15:20:25;;;;;;;0.60;0.45;;;18.40;48.10;;;;;;4894547;28;45678;-58
2022/10/02 15:22:57;;;;;;;0.50;0.50;;;18.40;48.20;;;;;;4896997;28;45942;-58
2022/10/02 15:26:18;;;;;;;0.70;0.60;;;18.40;48.10;;;;;;4912210;28;45267;-58
2022/10/02 15:28:56;;;;;;;0.50;0.50;;;18.40;48.10;;;;;;4852550;29;45590;-60
2022/10/02 15:31:42;;;;;;;0.80;0.65;;;18.40;48.20;;;;;;4883321;28;45163;-59
2022/10/02 15:34:27;;;;;;;0.40;0.40;;;18.40;48.10;;;;;;4879910;28;45199;-60
2022/10/02 15:36:52;;;;;;;0.47;0.40;;;18.40;48.10;;;;;;4894889;28;45448;-58
2022/10/02 15:39:24;;;;;;;0.43;0.43;;;18.40;48.10;;;;;;4895868;28;45573;-57
2022/10/02 15:42:08;;;;;;;0.68;0.40;;;18.40;48.10;;;;;;4888823;28;45296;-58
2022/10/02 15:44:36;;;;;;;;;;;18.40;48.20;;;;;;4917255;28;46345;-59
2022/10/02 15:47:15;;;;;;;1.30;0.50;;;18.40;48.40;;;;;;4911688;28;45356;-59
2022/10/02 15:50:21;;;;;;;0.65;0.50;;;18.40;48.30;;;;;;4895275;28;46427;-56
2022/10/02 15:52:47;;;;;;;0.90;0.47;;;18.40;48.20;;;;;;4877694;28;45151;-58
2022/10/02 15:55:40;;;;;;;2.35;0.57;;;18.50;48.10;;;;;;4913702;28;46199;-58
2022/10/02 15:58:43;;;;;;;0.50;0.50;;;18.50;48.10;;;;;;4910563;28;45332;-58
2022/10/02 16:01:26;;;;;;;0.67;0.50;;;18.50;48.10;;;;;;4912804;28;45481;-57
2022/10/02 16:04:26;;;;;;;0.40;0.40;;;18.60;48.00;;;;;;4897389;28;45882;-55
2022/10/02 16:06:55;;;;;;;;;;;18.60;48.00;;;;;;4883620;28;46603;-59
2022/10/02 16:09:31;;;;;;;;;;;18.70;48.00;;;;;;4919182;28;45252;-59
2022/10/02 16:12:16;;;;;;;;;;;18.70;47.90;;;;;;4898124;28;46517;-61
2022/10/02 16:14:55;;;;;;;;;;;18.70;47.70;;;;;;4919715;28;44727;-59
2022/10/02 16:17:41;;;;;;;;;;;18.80;47.80;;;;;;4900958;28;46114;-60
2022/10/02 16:20:21;;;;;;;;;;;18.80;47.90;;;;;;4915503;28;44886;-62
2022/10/02 16:23:06;;;;;;;;;;;18.80;47.70;;;;;;4898744;28;45615;-62
2022/10/02 16:26:00;;;;;;;;;;;18.80;47.70;;;;;;4916928;28;44894;-62
2022/10/02 16:28:44;;;;;;;;;;;18.80;47.80;;;;;;4867280;28;45636;-61
2022/10/02 16:31:21;;;;;;;;;;;18.80;47.80;;;;;;4918886;28;45210;-62
2022/10/02 16:33:50;;;;;;;;;;;18.80;47.80;;;;;;4917138;28;45472;-61
2022/10/02 16:36:19;;;;;;;;;;;18.80;47.70;;;;;;4914123;28;45516;-61
2022/10/02 16:38:48;;;;;;;;;;;18.80;47.70;;;;;;4910049;28;46100;-58
2022/10/02 16:41:35;;;;;;;;;;;18.80;47.80;;;;;;4914286;28;44935;-60
2022/10/02 16:44:40;;;;;;;;;;;18.90;47.80;;;;;;4916854;28;45079;-59
2022/10/02 16:47:07;;;;;;;;;;;18.90;47.80;;;;;;4858422;29;45698;-60
2022/10/02 16:49:44;;;;;;;;;;;18.90;47.80;;;;;;4847731;29;46099;-57
2022/10/02 16:52:13;;;;;;;;;;;18.90;47.80;;;;;;4877419;28;45483;-59
2022/10/02 16:54:45;;;;;;;;;;;18.90;47.80;;;;;;4903204;28;45156;-61
2022/10/02 16:57:14;;;;;;;;;;;18.90;47.70;;;;;;4902208;28;45097;-60
2022/10/02 17:00:00;;;;;;;;;;;18.90;47.70;;;;;;4920405;28;45256;-63
2022/10/02 17:02:29;;;;;;;;;;;19.00;47.80;;;;;;4901323;28;44878;-61
2022/10/02 17:05:14;;;;;;;;;;;19.00;47.90;;;;;;4901627;28;45234;-60
2022/10/02 17:08:02;;;;;;;;;;;18.90;47.90;;;;;;4918286;28;45575;-61
2022/10/02 17:10:27;;;;;;;;;;;18.90;48.10;;;;;;4915934;28;46366;-60
2022/10/02 17:12:59;;;;;;;;;;;18.90;48.20;;;;;;4920184;28;45313;-60
2022/10/02 17:15:33;;;;;;;;;;;18.90;48.20;;;;;;4919599;28;45291;-61
2022/10/02 17:18:00;;;;;;;;;;;18.90;48.20;;;;;;4898706;28;45623;-60
2022/10/02 17:20:26;;;;;;;;;;;18.90;48.20;;;;;;4899367;28;45142;-59
2022/10/02 17:22:56;;;;;;;;;;;18.90;48.40;;;;;;4887064;28;45267;-59
2022/10/02 17:25:40;;;;;;;;;;;18.80;48.30;;;;;;4902171;28;45209;-61